sensor_id;sensor_type;location;lat;lon;timestamp;pressure;altitude;pressure_sealevel;temperature;humidity
43824;BME280;29470;53.550;9.926;2023-02-01T00:00:09;100722.09;;;5.50;99.30
43824;BME280;29470;53.550;9.926;2023-02-01T00:05:13;100719.69;;;5.81;98.87
43824;BME280;29470;53.550;9.926;2023-02-01T00:10:18;100704.16;;;5.90;98.36
43824;BME280;29470;53.550;9.926;2023-02-01T00:15:21;100710.06;;;5.89;98.33
43824;BME280;29470;53.550;9.926;2023-02-01T00:20:24;100708.22;;;5.78;98.16
43824;BME280;29470;53.550;9.926;2023-02-01T00:25:29;100707.75;;;6.11;96.36
43824;BME280;29470;53.550;9.926;2023-02-01T00:30:32;100709.66;;;6.14;95.50
43824;BME280;29470;53.550;9.926;2023-02-01T00:35:35;100710.47;;;6.23;94.63
43824;BME280;29470;53.550;9.926;2023-02-01T00:40:39;100711.47;;;6.15;95.14
43824;BME280;29470;53.550;9.926;2023-02-01T00:45:42;100702.03;;;6.45;95.00
43824;BME280;29470;53.550;9.926;2023-02-01T00:50:45;100699.81;;;6.39;95.75
43824;BME280;29470;53.550;9.926;2023-02-01T00:55:49;100692.84;;;6.28;96.81
43824;BME280;29470;53.550;9.926;2023-02-01T01:01:00;100689.19;;;6.45;95.43
43824;BME280;29470;53.550;9.926;2023-02-01T01:06:06;100691.72;;;6.24;97.43
43824;BME280;29470;53.550;9.926;2023-02-01T01:11:13;100690.97;;;6.46;95.70
43824;BME280;29470;53.550;9.926;2023-02-01T01:16:17;100683.63;;;6.40;96.09
43824;BME280;29470;53.550;9.926;2023-02-01T01:21:21;100690.41;;;6.19;98.03
43824;BME280;29470;53.550;9.926;2023-02-01T01:26:26;100686.84;;;6.27;97.27
43824;BME280;29470;53.550;9.926;2023-02-01T01:31:30;100684.88;;;6.25;97.90
43824;BME280;29470;53.550;9.926;2023-02-01T01:36:33;100662.31;;;6.52;97.27
43824;BME280;29470;53.550;9.926;2023-02-01T01:41:37;100660.91;;;6.55;96.46
43824;BME280;29470;53.550;9.926;2023-02-01T01:46:50;100647.16;;;6.65;96.66
43824;BME280;29470;53.550;9.926;2023-02-01T01:51:56;100638.31;;;6.61;96.53
43824;BME280;29470;53.550;9.926;2023-02-01T01:57:04;100633.78;;;6.69;95.81
43824;BME280;29470;53.550;9.926;2023-02-01T02:02:09;100620.81;;;6.78;94.43
43824;BME280;29470;53.550;9.926;2023-02-01T02:07:14;100626.47;;;6.74;94.25
43824;BME280;29470;53.550;9.926;2023-02-01T02:12:21;100625.19;;;6.79;94.82
43824;BME280;29470;53.550;9.926;2023-02-01T02:17:30;100621.94;;;6.92;94.11
43824;BME280;29470;53.550;9.926;2023-02-01T02:22:48;100615.41;;;6.75;97.49
43824;BME280;29470;53.550;9.926;2023-02-01T02:28:13;100607.44;;;6.82;99.73
43824;BME280;29470;53.550;9.926;2023-02-01T02:33:46;100607.06;;;6.67;99.78
43824;BME280;29470;53.550;9.926;2023-02-01T02:38:57;100588.44;;;6.70;100.00
43824;BME280;29470;53.550;9.926;2023-02-01T02:44:11;100584.84;;;6.68;100.00
43824;BME280;29470;53.550;9.926;2023-02-01T02:49:41;100576.38;;;6.48;100.00
43824;BME280;29470;53.550;9.926;2023-02-01T02:55:07;100560.56;;;6.43;100.00
43824;BME280;29470;53.550;9.926;2023-02-01T03:00:14;100547.22;;;7.01;100.00
43824;BME280;29470;53.550;9.926;2023-02-01T03:05:40;100544.25;;;6.63;100.00
43824;BME280;29470;53.550;9.926;2023-02-01T03:10:46;100542.16;;;7.13;100.00
43824;BME280;29470;53.550;9.926;2023-02-01T03:15:56;100536.56;;;6.43;100.00
43824;BME280;29470;53.550;9.926;2023-02-01T03:21:06;100526.91;;;6.51;100.00
43824;BME280;29470;53.550;9.926;2023-02-01T03:26:11;100533.84;;;6.41;100.00
43824;BME280;29470;53.550;9.926;2023-02-01T03:31:16;100535.44;;;6.08;100.00
43824;BME280;29470;53.550;9.926;2023-02-01T03:36:30;100520.50;;;5.94;100.00
43824;BME280;29470;53.550;9.926;2023-02-01T03:41:37;100525.94;;;6.17;100.00
43824;BME280;29470;53.550;9.926;2023-02-01T03:46:43;100508.19;;;5.89;100.00
43824;BME280;29470;53.550;9.926;2023-02-01T03:51:51;100493.81;;;5.92;100.00
43824;BME280;29470;53.550;9.926;2023-02-01T03:56:56;100496.38;;;5.92;100.00
43824;BME280;29470;53.550;9.926;2023-02-01T04:02:01;100490.88;;;6.18;100.00
43824;BME280;29470;53.550;9.926;2023-02-01T04:07:06;100487.28;;;6.26;100.00
43824;BME280;29470;53.550;9.926;2023-02-01T04:12:08;100485.84;;;6.30;100.00
43824;BME280;29470;53.550;9.926;2023-02-01T04:17:11;100486.50;;;6.27;100.00
43824;BME280;29470;53.550;9.926;2023-02-01T04:22:16;100478.03;;;6.28;100.00
43824;BME280;29470;53.550;9.926;2023-02-01T04:27:18;100483.91;;;6.38;100.00
43824;BME280;29470;53.550;9.926;2023-02-01T04:32:22;100475.47;;;6.18;100.00
43824;BME280;29470;53.550;9.926;2023-02-01T04:37:26;100467.16;;;6.10;100.00
43824;BME280;29470;53.550;9.926;2023-02-01T04:42:30;100463.22;;;6.26;100.00
43824;BME280;29470;53.550;9.926;2023-02-01T04:47:33;100454.13;;;5.98;100.00
43824;BME280;29470;53.550;9.926;2023-02-01T04:52:37;100457.47;;;5.66;100.00
43824;BME280;29470;53.550;9.926;2023-02-01T04:57:40;100472.09;;;5.67;100.00
43824;BME280;29470;53.550;9.926;2023-02-01T05:02:43;100480.97;;;5.60;100.00
43824;BME280;29470;53.550;9.926;2023-02-01T05:07:47;100488.72;;;5.21;100.00
43824;BME280;29470;53.550;9.926;2023-02-01T05:12:50;100505.75;;;4.61;100.00
43824;BME280;29470;53.550;9.926;2023-02-01T05:18:10;100503.31;;;4.43;100.00
43824;BME280;29470;53.550;9.926;2023-02-01T05:23:14;100468.06;;;4.60;100.00
43824;BME280;29470;53.550;9.926;2023-02-01T05:28:17;100451.22;;;4.43;100.00
43824;BME280;29470;53.550;9.926;2023-02-01T05:33:21;100437.28;;;4.39;100.00
43824;BME280;29470;53.550;9.926;2023-02-01T05:38:25;100460.19;;;4.19;100.00
43824;BME280;29470;53.550;9.926;2023-02-01T05:43:28;100477.00;;;4.06;100.00
43824;BME280;29470;53.550;9.926;2023-02-01T05:48:35;100481.06;;;4.23;100.00
43824;BME280;29470;53.550;9.926;2023-02-01T05:53:42;100486.34;;;4.25;100.00
43824;BME280;29470;53.550;9.926;2023-02-01T05:58:45;100476.66;;;4.31;100.00
43824;BME280;29470;53.550;9.926;2023-02-01T06:03:48;100469.03;;;4.41;100.00
43824;BME280;29470;53.550;9.926;2023-02-01T06:08:52;100462.31;;;4.33;100.00
43824;BME280;29470;53.550;9.926;2023-02-01T06:13:55;100460.44;;;4.70;100.00
43824;BME280;29470;53.550;9.926;2023-02-01T06:18:58;100452.16;;;4.73;100.00
43824;BME280;29470;53.550;9.926;2023-02-01T06:24:02;100456.66;;;4.86;100.00
43824;BME280;29470;53.550;9.926;2023-02-01T06:29:06;100447.63;;;5.00;100.00
43824;BME280;29470;53.550;9.926;2023-02-01T06:34:09;100459.25;;;4.96;100.00
43824;BME280;29470;53.550;9.926;2023-02-01T06:39:13;100451.81;;;5.29;100.00
43824;BME280;29470;53.550;9.926;2023-02-01T06:44:18;100446.19;;;5.54;100.00
43824;BME280;29470;53.550;9.926;2023-02-01T06:49:29;100447.22;;;5.66;100.00
43824;BME280;29470;53.550;9.926;2023-02-01T06:54:40;100449.94;;;4.97;100.00
43824;BME280;29470;53.550;9.926;2023-02-01T07:00:02;100467.44;;;5.32;100.00
43824;BME280;29470;53.550;9.926;2023-02-01T07:05:05;100466.53;;;5.31;100.00
43824;BME280;29470;53.550;9.926;2023-02-01T07:10:10;100451.13;;;5.21;100.00
43824;BME280;29470;53.550;9.926;2023-02-01T07:15:13;100450.00;;;5.49;100.00
43824;BME280;29470;53.550;9.926;2023-02-01T07:20:16;100467.69;;;5.35;100.00
43824;BME280;29470;53.550;9.926;2023-02-01T07:25:21;100478.75;;;5.44;100.00
43824;BME280;29470;53.550;9.926;2023-02-01T07:30:26;100473.13;;;5.59;100.00
43824;BME280;29470;53.550;9.926;2023-02-01T07:35:30;100450.03;;;5.80;100.00
43824;BME280;29470;53.550;9.926;2023-02-01T07:40:34;100460.31;;;6.00;100.00
43824;BME280;29470;53.550;9.926;2023-02-01T07:45:37;100452.59;;;5.90;100.00
43824;BME280;29470;53.550;9.926;2023-02-01T07:50:40;100458.25;;;5.96;100.00
43824;BME280;29470;53.550;9.926;2023-02-01T07:55:46;100463.09;;;6.34;100.00
43824;BME280;29470;53.550;9.926;2023-02-01T08:00:54;100464.69;;;6.01;100.00
43824;BME280;29470;53.550;9.926;2023-02-01T08:06:15;100465.16;;;6.39;100.00
43824;BME280;29470;53.550;9.926;2023-02-01T08:11:20;100475.06;;;6.24;100.00
43824;BME280;29470;53.550;9.926;2023-02-01T08:16:26;100487.19;;;6.04;100.00
43824;BME280;29470;53.550;9.926;2023-02-01T08:21:29;100490.63;;;6.15;100.00
43824;BME280;29470;53.550;9.926;2023-02-01T08:26:41;100498.78;;;6.52;100.00
43824;BME280;29470;53.550;9.926;2023-02-01T08:31:44;100504.13;;;7.08;100.00
43824;BME280;29470;53.550;9.926;2023-02-01T08:37:02;100501.19;;;7.04;100.00
43824;BME280;29470;53.550;9.926;2023-02-01T08:42:09;100509.28;;;6.66;100.00
43824;BME280;29470;53.550;9.926;2023-02-01T08:47:32;100497.97;;;6.63;100.00
43824;BME280;29470;53.550;9.926;2023-02-01T08:54:03;100485.97;;;7.07;100.00
43824;BME280;29470;53.550;9.926;2023-02-01T08:59:10;100486.81;;;6.96;100.00
43824;BME280;29470;53.550;9.926;2023-02-01T09:04:14;100479.50;;;7.79;100.00
43824;BME280;29470;53.550;9.926;2023-02-01T09:09:28;100473.13;;;7.86;96.73
43824;BME280;29470;53.550;9.926;2023-02-01T09:14:35;100472.88;;;7.48;96.22
43824;BME280;29470;53.550;9.926;2023-02-01T09:19:40;100463.75;;;7.64;95.51
43824;BME280;29470;53.550;9.926;2023-02-01T09:24:49;100480.78;;;7.17;97.89
43824;BME280;29470;53.550;9.926;2023-02-01T09:29:57;100487.66;;;7.06;99.98
43824;BME280;29470;53.550;9.926;2023-02-01T09:35:00;100488.03;;;7.33;99.74
43824;BME280;29470;53.550;9.926;2023-02-01T09:40:58;100489.78;;;7.45;99.38
43824;BME280;29470;53.550;9.926;2023-02-01T09:45:59;100490.53;;;7.21;100.00
43824;BME280;29470;53.550;9.926;2023-02-01T09:51:16;100476.09;;;7.68;97.63
43824;BME280;29470;53.550;9.926;2023-02-01T09:56:41;100470.00;;;7.90;94.16
43824;BME280;29470;53.550;9.926;2023-02-01T10:01:48;100462.81;;;7.74;95.09
43824;BME280;29470;53.550;9.926;2023-02-01T10:06:59;100472.41;;;7.42;94.51
43824;BME280;29470;53.550;9.926;2023-02-01T10:18:26;100489.47;;;7.52;94.58
43824;BME280;29470;53.550;9.926;2023-02-01T10:23:45;100474.75;;;7.61;96.46
43824;BME280;29470;53.550;9.926;2023-02-01T10:29:11;100480.50;;;7.81;95.82
43824;BME280;29470;53.550;9.926;2023-02-01T10:34:27;100463.91;;;7.43;98.88
43824;BME280;29470;53.550;9.926;2023-02-01T10:39:56;100445.66;;;7.40;99.88
43824;BME280;29470;53.550;9.926;2023-02-01T10:45:15;100433.34;;;7.70;100.00
43824;BME280;29470;53.550;9.926;2023-02-01T10:50:33;100413.91;;;7.74;99.87
43824;BME280;29470;53.550;9.926;2023-02-01T10:55:48;100406.63;;;7.80;99.29
43824;BME280;29470;53.550;9.926;2023-02-01T11:01:08;100395.19;;;7.64;100.00
43824;BME280;29470;53.550;9.926;2023-02-01T11:06:40;100368.69;;;8.13;98.18
43824;BME280;29470;53.550;9.926;2023-02-01T11:11:58;100368.69;;;8.13;96.48
43824;BME280;29470;53.550;9.926;2023-02-01T11:17:12;100360.50;;;7.83;94.88
43824;BME280;29470;53.550;9.926;2023-02-01T11:22:26;100366.44;;;8.06;94.69
43824;BME280;29470;53.550;9.926;2023-02-01T11:27:50;100364.31;;;8.00;93.31
43824;BME280;29470;53.550;9.926;2023-02-01T11:32:56;100346.38;;;8.02;94.66
43824;BME280;29470;53.550;9.926;2023-02-01T11:38:17;100352.22;;;7.87;96.60
43824;BME280;29470;53.550;9.926;2023-02-01T11:43:24;100335.53;;;7.70;97.95
43824;BME280;29470;53.550;9.926;2023-02-01T11:48:33;100336.88;;;7.89;98.53
43824;BME280;29470;53.550;9.926;2023-02-01T11:53:53;100335.72;;;7.49;100.00
43824;BME280;29470;53.550;9.926;2023-02-01T11:59:12;100328.59;;;6.89;100.00
43824;BME280;29470;53.550;9.926;2023-02-01T12:04:43;100326.75;;;7.10;100.00
43824;BME280;29470;53.550;9.926;2023-02-01T12:10:18;100318.13;;;6.98;100.00
43824;BME280;29470;53.550;9.926;2023-02-01T12:15:42;100304.22;;;7.18;100.00
43824;BME280;29470;53.550;9.926;2023-02-01T12:21:01;100303.91;;;7.37;100.00
43824;BME280;29470;53.550;9.926;2023-02-01T12:26:34;100324.19;;;6.76;100.00
43824;BME280;29470;53.550;9.926;2023-02-01T12:31:48;100333.84;;;6.68;100.00
43824;BME280;29470;53.550;9.926;2023-02-01T12:37:06;100357.91;;;6.36;100.00
43824;BME280;29470;53.550;9.926;2023-02-01T12:42:15;100361.34;;;6.14;100.00
43824;BME280;29470;53.550;9.926;2023-02-01T12:47:27;100356.09;;;5.92;100.00
43824;BME280;29470;53.550;9.926;2023-02-01T12:52:45;100343.63;;;5.97;100.00
43824;BME280;29470;53.550;9.926;2023-02-01T12:57:55;100345.34;;;5.55;100.00
43824;BME280;29470;53.550;9.926;2023-02-01T13:03:19;100348.63;;;6.06;100.00
43824;BME280;29470;53.550;9.926;2023-02-01T13:08:36;100334.16;;;6.06;100.00
43824;BME280;29470;53.550;9.926;2023-02-01T13:13:48;100322.03;;;6.48;100.00
43824;BME280;29470;53.550;9.926;2023-02-01T13:19:03;100307.81;;;6.63;100.00
43824;BME280;29470;53.550;9.926;2023-02-01T13:24:26;100311.38;;;7.22;98.97
43824;BME280;29470;53.550;9.926;2023-02-01T13:29:33;100322.69;;;6.90;99.36
43824;BME280;29470;53.550;9.926;2023-02-01T13:34:53;100313.31;;;6.90;97.11
43824;BME280;29470;53.550;9.926;2023-02-01T13:40:16;100312.78;;;7.06;99.99
43824;BME280;29470;53.550;9.926;2023-02-01T13:45:27;100308.53;;;6.73;97.71
43824;BME280;29470;53.550;9.926;2023-02-01T13:50:33;100306.53;;;6.81;98.78
43824;BME280;29470;53.550;9.926;2023-02-01T13:55:40;100303.31;;;6.61;96.94
43824;BME280;29470;53.550;9.926;2023-02-01T14:00:46;100300.03;;;7.08;97.91
43824;BME280;29470;53.550;9.926;2023-02-01T14:11:38;100304.75;;;7.84;92.62
43824;BME280;29470;53.550;9.926;2023-02-01T14:16:43;100310.91;;;7.74;92.93
43824;BME280;29470;53.550;9.926;2023-02-01T14:21:48;100327.03;;;7.59;93.94
43824;BME280;29470;53.550;9.926;2023-02-01T14:26:53;100305.53;;;7.13;96.22
43824;BME280;29470;53.550;9.926;2023-02-01T14:32:03;100344.44;;;6.61;100.00
43824;BME280;29470;53.550;9.926;2023-02-01T14:37:10;100388.34;;;6.42;100.00
43824;BME280;29470;53.550;9.926;2023-02-01T14:42:21;100395.88;;;5.77;100.00
43824;BME280;29470;53.550;9.926;2023-02-01T14:47:31;100389.88;;;5.66;100.00
43824;BME280;29470;53.550;9.926;2023-02-01T14:52:37;100394.34;;;5.48;100.00
43824;BME280;29470;53.550;9.926;2023-02-01T14:57:46;100393.44;;;5.99;100.00
43824;BME280;29470;53.550;9.926;2023-02-01T15:02:53;100398.59;;;6.09;100.00
43824;BME280;29470;53.550;9.926;2023-02-01T15:08:00;100403.56;;;5.97;100.00
43824;BME280;29470;53.550;9.926;2023-02-01T15:13:18;100402.56;;;5.85;100.00
43824;BME280;29470;53.550;9.926;2023-02-01T15:18:22;100404.84;;;6.23;100.00
43824;BME280;29470;53.550;9.926;2023-02-01T15:23:25;100402.78;;;5.98;100.00
43824;BME280;29470;53.550;9.926;2023-02-01T15:28:29;100405.88;;;5.84;100.00
43824;BME280;29470;53.550;9.926;2023-02-01T15:33:33;100402.28;;;5.92;100.00
43824;BME280;29470;53.550;9.926;2023-02-01T15:38:39;100404.75;;;5.70;100.00
43824;BME280;29470;53.550;9.926;2023-02-01T15:43:43;100422.84;;;5.71;100.00
43824;BME280;29470;53.550;9.926;2023-02-01T15:48:51;100441.44;;;5.69;100.00
43824;BME280;29470;53.550;9.926;2023-02-01T15:53:56;100424.50;;;5.81;100.00
43824;BME280;29470;53.550;9.926;2023-02-01T15:59:02;100427.97;;;5.92;100.00
43824;BME280;29470;53.550;9.926;2023-02-01T16:04:16;100428.47;;;5.88;100.00
43824;BME280;29470;53.550;9.926;2023-02-01T16:09:21;100430.53;;;6.02;100.00
43824;BME280;29470;53.550;9.926;2023-02-01T16:14:25;100427.69;;;5.99;100.00
43824;BME280;29470;53.550;9.926;2023-02-01T16:19:30;100435.22;;;6.29;100.00
43824;BME280;29470;53.550;9.926;2023-02-01T16:24:33;100450.09;;;6.43;100.00
43824;BME280;29470;53.550;9.926;2023-02-01T16:29:35;100452.84;;;5.83;100.00
43824;BME280;29470;53.550;9.926;2023-02-01T16:34:39;100450.56;;;6.07;100.00
43824;BME280;29470;53.550;9.926;2023-02-01T16:39:43;100455.84;;;6.08;100.00
43824;BME280;29470;53.550;9.926;2023-02-01T16:44:46;100461.16;;;6.32;100.00
43824;BME280;29470;53.550;9.926;2023-02-01T16:49:51;100454.47;;;6.44;100.00
43824;BME280;29470;53.550;9.926;2023-02-01T16:54:54;100458.41;;;6.08;100.00
43824;BME280;29470;53.550;9.926;2023-02-01T16:59:57;100459.91;;;6.27;100.00
43824;BME280;29470;53.550;9.926;2023-02-01T17:05:13;100466.56;;;6.25;100.00
43824;BME280;29470;53.550;9.926;2023-02-01T17:10:22;100466.59;;;6.78;100.00
43824;BME280;29470;53.550;9.926;2023-02-01T17:15:35;100485.91;;;6.62;98.10
43824;BME280;29470;53.550;9.926;2023-02-01T17:20:39;100489.16;;;6.39;98.41
43824;BME280;29470;53.550;9.926;2023-02-01T17:25:42;100494.91;;;6.57;97.94
43824;BME280;29470;53.550;9.926;2023-02-01T17:30:45;100499.06;;;6.45;97.16
43824;BME280;29470;53.550;9.926;2023-02-01T17:35:49;100493.13;;;6.56;94.17
43824;BME280;29470;53.550;9.926;2023-02-01T17:40:52;100483.94;;;6.70;92.31
43824;BME280;29470;53.550;9.926;2023-02-01T17:45:57;100496.59;;;6.46;91.99
43824;BME280;29470;53.550;9.926;2023-02-01T17:51:02;100494.94;;;6.47;90.45
43824;BME280;29470;53.550;9.926;2023-02-01T17:56:10;100501.31;;;6.73;88.56
43824;BME280;29470;53.550;9.926;2023-02-01T18:01:17;100499.94;;;6.45;88.82
43824;BME280;29470;53.550;9.926;2023-02-01T18:06:23;100503.00;;;6.52;88.75
43824;BME280;29470;53.550;9.926;2023-02-01T18:11:27;100501.88;;;6.48;88.02
43824;BME280;29470;53.550;9.926;2023-02-01T18:16:33;100499.94;;;6.45;88.96
43824;BME280;29470;53.550;9.926;2023-02-01T18:21:41;100484.66;;;6.47;89.77
43824;BME280;29470;53.550;9.926;2023-02-01T18:26:44;100503.91;;;6.62;89.43
43824;BME280;29470;53.550;9.926;2023-02-01T18:31:47;100487.78;;;6.12;91.09
43824;BME280;29470;53.550;9.926;2023-02-01T18:36:52;100488.56;;;6.21;90.18
43824;BME280;29470;53.550;9.926;2023-02-01T18:41:55;100499.88;;;6.02;91.51
43824;BME280;29470;53.550;9.926;2023-02-01T18:46:58;100497.03;;;6.20;90.87
43824;BME280;29470;53.550;9.926;2023-02-01T18:52:02;100501.28;;;6.09;92.52
43824;BME280;29470;53.550;9.926;2023-02-01T18:57:06;100502.91;;;5.98;93.46
43824;BME280;29470;53.550;9.926;2023-02-01T19:02:11;100495.88;;;5.85;94.01
43824;BME280;29470;53.550;9.926;2023-02-01T19:07:16;100489.59;;;6.13;92.37
43824;BME280;29470;53.550;9.926;2023-02-01T19:12:18;100490.88;;;6.08;93.17
43824;BME280;29470;53.550;9.926;2023-02-01T19:17:21;100482.91;;;6.25;90.22
43824;BME280;29470;53.550;9.926;2023-02-01T19:22:26;100478.00;;;6.39;87.12
43824;BME280;29470;53.550;9.926;2023-02-01T19:27:29;100479.66;;;6.28;88.22
43824;BME280;29470;53.550;9.926;2023-02-01T19:32:31;100470.75;;;6.55;85.95
43824;BME280;29470;53.550;9.926;2023-02-01T19:37:40;100492.22;;;6.56;86.66
43824;BME280;29470;53.550;9.926;2023-02-01T19:42:43;100535.16;;;7.00;88.17
43824;BME280;29470;53.550;9.926;2023-02-01T19:47:47;100552.88;;;6.23;100.00
43824;BME280;29470;53.550;9.926;2023-02-01T19:52:51;100525.47;;;5.71;100.00
43824;BME280;29470;53.550;9.926;2023-02-01T19:57:54;100541.91;;;5.23;100.00
43824;BME280;29470;53.550;9.926;2023-02-01T20:02:57;100529.50;;;5.28;100.00
43824;BME280;29470;53.550;9.926;2023-02-01T20:08:02;100512.75;;;5.52;100.00
43824;BME280;29470;53.550;9.926;2023-02-01T20:13:05;100512.72;;;5.42;100.00
43824;BME280;29470;53.550;9.926;2023-02-01T20:18:08;100524.31;;;5.57;100.00
43824;BME280;29470;53.550;9.926;2023-02-01T20:23:12;100517.72;;;5.40;100.00
43824;BME280;29470;53.550;9.926;2023-02-01T20:28:15;100519.84;;;5.86;100.00
43824;BME280;29470;53.550;9.926;2023-02-01T20:33:18;100535.38;;;5.77;100.00
43824;BME280;29470;53.550;9.926;2023-02-01T20:38:23;100535.38;;;5.77;100.00
43824;BME280;29470;53.550;9.926;2023-02-01T20:43:25;100533.84;;;5.79;100.00
43824;BME280;29470;53.550;9.926;2023-02-01T20:48:28;100521.38;;;5.84;100.00
43824;BME280;29470;53.550;9.926;2023-02-01T20:53:34;100528.75;;;5.39;100.00
43824;BME280;29470;53.550;9.926;2023-02-01T20:58:37;100522.97;;;5.31;100.00
43824;BME280;29470;53.550;9.926;2023-02-01T21:03:42;100535.31;;;5.46;100.00
43824;BME280;29470;53.550;9.926;2023-02-01T21:08:46;100525.09;;;5.56;100.00
43824;BME280;29470;53.550;9.926;2023-02-01T21:13:49;100523.69;;;5.70;100.00
43824;BME280;29470;53.550;9.926;2023-02-01T21:18:52;100511.38;;;5.87;99.68
43824;BME280;29470;53.550;9.926;2023-02-01T21:23:57;100532.31;;;6.33;94.91
43824;BME280;29470;53.550;9.926;2023-02-01T21:29:01;100539.38;;;6.46;92.29
43824;BME280;29470;53.550;9.926;2023-02-01T21:34:04;100549.09;;;6.81;92.31
43824;BME280;29470;53.550;9.926;2023-02-01T21:39:08;100559.44;;;6.50;93.95
43824;BME280;29470;53.550;9.926;2023-02-01T21:44:12;100553.00;;;6.55;92.55
43824;BME280;29470;53.550;9.926;2023-02-01T21:49:15;100564.56;;;6.50;93.58
43824;BME280;29470;53.550;9.926;2023-02-01T21:54:19;100574.34;;;6.33;94.41
43824;BME280;29470;53.550;9.926;2023-02-01T21:59:22;100567.78;;;6.37;94.77
43824;BME280;29470;53.550;9.926;2023-02-01T22:04:25;100556.72;;;6.48;92.39
43824;BME280;29470;53.550;9.926;2023-02-01T22:09:30;100572.25;;;6.60;93.75
43824;BME280;29470;53.550;9.926;2023-02-01T22:14:33;100584.88;;;6.47;93.80
43824;BME280;29470;53.550;9.926;2023-02-01T22:19:35;100593.84;;;6.42;95.19
43824;BME280;29470;53.550;9.926;2023-02-01T22:24:39;100596.94;;;6.38;97.04
43824;BME280;29470;53.550;9.926;2023-02-01T22:29:42;100603.38;;;6.53;96.49
43824;BME280;29470;53.550;9.926;2023-02-01T22:34:45;100594.88;;;6.54;96.38
43824;BME280;29470;53.550;9.926;2023-02-01T22:39:49;100607.06;;;6.36;100.00
43824;BME280;29470;53.550;9.926;2023-02-01T22:44:52;100620.06;;;6.27;100.00
43824;BME280;29470;53.550;9.926;2023-02-01T22:49:55;100632.50;;;6.02;100.00
43824;BME280;29470;53.550;9.926;2023-02-01T22:54:59;100637.91;;;5.86;100.00
43824;BME280;29470;53.550;9.926;2023-02-01T23:00:03;100637.91;;;5.86;100.00
43824;BME280;29470;53.550;9.926;2023-02-01T23:05:06;100639.28;;;6.01;100.00
43824;BME280;29470;53.550;9.926;2023-02-01T23:10:11;100643.16;;;6.17;100.00
43824;BME280;29470;53.550;9.926;2023-02-01T23:15:14;100665.63;;;6.19;100.00
43824;BME280;29470;53.550;9.926;2023-02-01T23:20:18;100673.50;;;6.31;100.00
43824;BME280;29470;53.550;9.926;2023-02-01T23:25:22;100675.28;;;6.32;100.00
43824;BME280;29470;53.550;9.926;2023-02-01T23:30:26;100674.28;;;6.41;100.00
43824;BME280;29470;53.550;9.926;2023-02-01T23:35:29;100683.63;;;6.30;100.00
43824;BME280;29470;53.550;9.926;2023-02-01T23:40:33;100674.66;;;6.45;100.00
43824;BME280;29470;53.550;9.926;2023-02-01T23:45:36;100678.16;;;6.67;100.00
43824;BME280;29470;53.550;9.926;2023-02-01T23:50:39;100682.09;;;6.53;100.00
43824;BME280;29470;53.550;9.926;2023-02-01T23:55:43;100673.50;;;6.52;100.00
